Echo, Oregon
Current Conditions -  °F | °C
As of 5:53 PM on Saturday 22 Nov 2014 (Local Time) from KHRI Reporting Station
Clear Clear  
Wind Chill: 39°   Ceiling: Unl
Heat Index: 46°   Visibility: 10mi
Dew Point: 35°   Wind: 16mph
Humidity: 66%   Direction: 240°WSW
Pressure: 29.97"   Gusts: NA
Location:  45.74°N, 119.2°W
Report Text: KHRI 230153Z AUTO 24014KT 10SM CLR 08/02 A2997 RMK AO2 PK WND 25027/0112 SLP148 T00780017
Loading
Personal Weather Stations






























Interactive Weather Map New forecast layout! Learn more

10-Day Weather Forecast

Advertisements
Track Severe Weather on mobile